sensor_id;sensor_type;location;lat;lon;timestamp;temperature;humidity
39079;DHT22;24829;49.208;12.080;2022-10-15T00:01:42;13.00;99.90
39079;DHT22;24829;49.208;12.080;2022-10-15T00:04:08;13.00;99.90
39079;DHT22;24829;49.208;12.080;2022-10-15T00:06:34;13.00;99.90
39079;DHT22;24829;49.208;12.080;2022-10-15T00:08:59;13.00;99.90
39079;DHT22;24829;49.208;12.080;2022-10-15T00:11:26;13.00;99.90
39079;DHT22;24829;49.208;12.080;2022-10-15T00:13:53;12.90;99.90
39079;DHT22;24829;49.208;12.080;2022-10-15T00:16:21;12.90;99.90
39079;DHT22;24829;49.208;12.080;2022-10-15T00:18:47;12.90;99.90
39079;DHT22;24829;49.208;12.080;2022-10-15T00:21:15;12.90;99.90
39079;DHT22;24829;49.208;12.080;2022-10-15T00:23:42;12.80;99.90
39079;DHT22;24829;49.208;12.080;2022-10-15T00:26:14;12.90;99.90
39079;DHT22;24829;49.208;12.080;2022-10-15T00:28:40;12.90;99.90
39079;DHT22;24829;49.208;12.080;2022-10-15T00:31:09;12.90;99.90
39079;DHT22;24829;49.208;12.080;2022-10-15T00:33:36;12.80;99.90
39079;DHT22;24829;49.208;12.080;2022-10-15T00:36:10;12.90;99.90
39079;DHT22;24829;49.208;12.080;2022-10-15T00:38:37;12.90;99.90
39079;DHT22;24829;49.208;12.080;2022-10-15T00:41:04;12.90;99.90
39079;DHT22;24829;49.208;12.080;2022-10-15T00:46:00;12.80;99.90
39079;DHT22;24829;49.208;12.080;2022-10-15T00:48:26;12.90;99.90
39079;DHT22;24829;49.208;12.080;2022-10-15T00:50:52;12.90;99.90
39079;DHT22;24829;49.208;12.080;2022-10-15T00:53:19;12.90;99.90
39079;DHT22;24829;49.208;12.080;2022-10-15T00:55:45;12.90;99.90
39079;DHT22;24829;49.208;12.080;2022-10-15T00:58:14;12.90;99.90
39079;DHT22;24829;49.208;12.080;2022-10-15T01:00:40;12.90;99.90
39079;DHT22;24829;49.208;12.080;2022-10-15T01:03:06;12.90;99.90
39079;DHT22;24829;49.208;12.080;2022-10-15T01:05:34;12.90;99.90
39079;DHT22;24829;49.208;12.080;2022-10-15T01:08:00;12.90;99.90
39079;DHT22;24829;49.208;12.080;2022-10-15T01:13:51;12.90;99.90
39079;DHT22;24829;49.208;12.080;2022-10-15T01:19:01;12.90;99.90
39079;DHT22;24829;49.208;12.080;2022-10-15T01:21:41;12.90;99.90
39079;DHT22;24829;49.208;12.080;2022-10-15T01:24:33;12.90;99.90
39079;DHT22;24829;49.208;12.080;2022-10-15T01:30:02;12.90;99.90
39079;DHT22;24829;49.208;12.080;2022-10-15T01:32:36;12.90;99.90
39079;DHT22;24829;49.208;12.080;2022-10-15T01:38:00;12.90;99.90
39079;DHT22;24829;49.208;12.080;2022-10-15T01:43:18;12.90;99.90
39079;DHT22;24829;49.208;12.080;2022-10-15T01:45:57;12.90;99.90
39079;DHT22;24829;49.208;12.080;2022-10-15T01:48:26;12.90;99.90
39079;DHT22;24829;49.208;12.080;2022-10-15T01:50:55;12.90;99.90
39079;DHT22;24829;49.208;12.080;2022-10-15T01:53:25;12.90;99.90
39079;DHT22;24829;49.208;12.080;2022-10-15T01:56:00;12.80;99.90
39079;DHT22;24829;49.208;12.080;2022-10-15T01:58:29;12.90;99.90
39079;DHT22;24829;49.208;12.080;2022-10-15T02:00:56;12.80;99.90
39079;DHT22;24829;49.208;12.080;2022-10-15T02:03:22;12.90;99.90
39079;DHT22;24829;49.208;12.080;2022-10-15T02:06:03;12.90;99.90
39079;DHT22;24829;49.208;12.080;2022-10-15T02:08:43;12.90;99.90
39079;DHT22;24829;49.208;12.080;2022-10-15T02:11:14;12.90;99.90
39079;DHT22;24829;49.208;12.080;2022-10-15T02:13:58;12.90;99.90
39079;DHT22;24829;49.208;12.080;2022-10-15T02:22:13;12.90;99.90
39079;DHT22;24829;49.208;12.080;2022-10-15T02:24:51;12.90;99.90
39079;DHT22;24829;49.208;12.080;2022-10-15T02:27:19;12.90;99.90
39079;DHT22;24829;49.208;12.080;2022-10-15T02:29:48;12.90;99.90
39079;DHT22;24829;49.208;12.080;2022-10-15T02:32:15;12.90;99.90
39079;DHT22;24829;49.208;12.080;2022-10-15T02:34:43;12.90;99.90
39079;DHT22;24829;49.208;12.080;2022-10-15T02:37:10;12.90;99.90
39079;DHT22;24829;49.208;12.080;2022-10-15T02:39:36;12.90;99.90
39079;DHT22;24829;49.208;12.080;2022-10-15T02:42:02;12.90;99.90
39079;DHT22;24829;49.208;12.080;2022-10-15T02:44:28;12.80;99.90
39079;DHT22;24829;49.208;12.080;2022-10-15T02:46:55;12.90;99.90
39079;DHT22;24829;49.208;12.080;2022-10-15T02:49:22;12.90;99.90
39079;DHT22;24829;49.208;12.080;2022-10-15T02:51:47;12.90;99.90
39079;DHT22;24829;49.208;12.080;2022-10-15T02:54:13;12.90;99.90
39079;DHT22;24829;49.208;12.080;2022-10-15T02:56:38;12.90;99.90
39079;DHT22;24829;49.208;12.080;2022-10-15T02:59:04;12.80;99.90
39079;DHT22;24829;49.208;12.080;2022-10-15T03:01:31;12.80;99.90
39079;DHT22;24829;49.208;12.080;2022-10-15T03:03:57;12.90;99.90
39079;DHT22;24829;49.208;12.080;2022-10-15T03:06:22;12.90;99.90
39079;DHT22;24829;49.208;12.080;2022-10-15T03:08:48;12.90;99.90
39079;DHT22;24829;49.208;12.080;2022-10-15T03:11:14;12.90;99.90
39079;DHT22;24829;49.208;12.080;2022-10-15T03:13:40;12.90;99.90
39079;DHT22;24829;49.208;12.080;2022-10-15T03:16:07;12.80;99.90
39079;DHT22;24829;49.208;12.080;2022-10-15T03:18:33;12.90;99.90
39079;DHT22;24829;49.208;12.080;2022-10-15T03:20:59;12.80;99.90
39079;DHT22;24829;49.208;12.080;2022-10-15T03:23:25;12.80;99.90
39079;DHT22;24829;49.208;12.080;2022-10-15T03:25:51;12.80;99.90
39079;DHT22;24829;49.208;12.080;2022-10-15T03:28:17;12.80;99.90
39079;DHT22;24829;49.208;12.080;2022-10-15T03:30:42;12.80;99.90
39079;DHT22;24829;49.208;12.080;2022-10-15T03:33:08;12.80;99.90
39079;DHT22;24829;49.208;12.080;2022-10-15T03:35:34;12.80;99.90
39079;DHT22;24829;49.208;12.080;2022-10-15T03:37:59;12.90;99.90
39079;DHT22;24829;49.208;12.080;2022-10-15T03:40:25;12.80;99.90
39079;DHT22;24829;49.208;12.080;2022-10-15T03:42:51;12.80;99.90
39079;DHT22;24829;49.208;12.080;2022-10-15T03:45:18;12.80;99.90
39079;DHT22;24829;49.208;12.080;2022-10-15T03:47:44;12.70;99.90
39079;DHT22;24829;49.208;12.080;2022-10-15T03:50:09;12.70;99.90
39079;DHT22;24829;49.208;12.080;2022-10-15T03:52:36;12.60;99.90
39079;DHT22;24829;49.208;12.080;2022-10-15T03:55:02;12.60;99.90
39079;DHT22;24829;49.208;12.080;2022-10-15T03:57:27;12.60;99.90
39079;DHT22;24829;49.208;12.080;2022-10-15T03:59:53;12.60;99.90
39079;DHT22;24829;49.208;12.080;2022-10-15T04:02:19;12.60;99.90
39079;DHT22;24829;49.208;12.080;2022-10-15T04:04:44;12.60;99.90
39079;DHT22;24829;49.208;12.080;2022-10-15T04:07:10;12.70;99.90
39079;DHT22;24829;49.208;12.080;2022-10-15T04:09:35;12.70;99.90
39079;DHT22;24829;49.208;12.080;2022-10-15T04:12:01;12.70;99.90
39079;DHT22;24829;49.208;12.080;2022-10-15T04:14:26;12.70;99.90
39079;DHT22;24829;49.208;12.080;2022-10-15T04:16:52;12.70;99.90
39079;DHT22;24829;49.208;12.080;2022-10-15T04:19:17;12.80;99.90
39079;DHT22;24829;49.208;12.080;2022-10-15T04:21:43;12.80;99.90
39079;DHT22;24829;49.208;12.080;2022-10-15T04:24:08;12.80;99.90
39079;DHT22;24829;49.208;12.080;2022-10-15T04:26:34;12.80;99.90
39079;DHT22;24829;49.208;12.080;2022-10-15T04:29:00;12.80;99.90
39079;DHT22;24829;49.208;12.080;2022-10-15T04:31:25;12.80;99.90
39079;DHT22;24829;49.208;12.080;2022-10-15T04:33:51;12.80;99.90
39079;DHT22;24829;49.208;12.080;2022-10-15T04:36:16;12.80;99.90
39079;DHT22;24829;49.208;12.080;2022-10-15T04:38:42;12.80;99.90
39079;DHT22;24829;49.208;12.080;2022-10-15T04:41:10;12.80;99.90
39079;DHT22;24829;49.208;12.080;2022-10-15T04:43:36;12.80;99.90
39079;DHT22;24829;49.208;12.080;2022-10-15T04:46:05;12.80;99.90
39079;DHT22;24829;49.208;12.080;2022-10-15T04:48:32;12.80;99.90
39079;DHT22;24829;49.208;12.080;2022-10-15T04:53:30;12.80;99.90
39079;DHT22;24829;49.208;12.080;2022-10-15T04:56:03;12.90;99.90
39079;DHT22;24829;49.208;12.080;2022-10-15T04:58:33;12.80;99.90
39079;DHT22;24829;49.208;12.080;2022-10-15T05:01:06;12.90;99.90
39079;DHT22;24829;49.208;12.080;2022-10-15T05:03:33;12.80;99.90
39079;DHT22;24829;49.208;12.080;2022-10-15T05:06:03;12.80;99.90
39079;DHT22;24829;49.208;12.080;2022-10-15T05:08:30;12.80;99.90
39079;DHT22;24829;49.208;12.080;2022-10-15T05:11:03;12.80;99.90
39079;DHT22;24829;49.208;12.080;2022-10-15T05:13:30;12.80;99.90
39079;DHT22;24829;49.208;12.080;2022-10-15T05:15:56;12.80;99.90
39079;DHT22;24829;49.208;12.080;2022-10-15T05:18:21;12.80;99.90
39079;DHT22;24829;49.208;12.080;2022-10-15T05:20:47;12.80;99.90
39079;DHT22;24829;49.208;12.080;2022-10-15T05:23:13;12.80;99.90
39079;DHT22;24829;49.208;12.080;2022-10-15T05:25:39;12.80;99.90
39079;DHT22;24829;49.208;12.080;2022-10-15T05:28:04;12.80;99.90
39079;DHT22;24829;49.208;12.080;2022-10-15T05:30:30;12.80;99.90
39079;DHT22;24829;49.208;12.080;2022-10-15T05:32:55;12.90;99.90
39079;DHT22;24829;49.208;12.080;2022-10-15T05:35:21;12.80;99.90
39079;DHT22;24829;49.208;12.080;2022-10-15T05:37:48;12.80;99.90
39079;DHT22;24829;49.208;12.080;2022-10-15T05:40:14;12.80;99.90
39079;DHT22;24829;49.208;12.080;2022-10-15T05:42:39;12.80;99.90
39079;DHT22;24829;49.208;12.080;2022-10-15T05:45:05;12.90;99.90
39079;DHT22;24829;49.208;12.080;2022-10-15T05:47:31;12.90;99.90
39079;DHT22;24829;49.208;12.080;2022-10-15T05:49:56;12.80;99.90
39079;DHT22;24829;49.208;12.080;2022-10-15T05:52:22;12.80;99.90
39079;DHT22;24829;49.208;12.080;2022-10-15T05:54:48;12.90;99.90
39079;DHT22;24829;49.208;12.080;2022-10-15T05:57:13;12.80;99.90
39079;DHT22;24829;49.208;12.080;2022-10-15T05:59:39;12.90;99.90
39079;DHT22;24829;49.208;12.080;2022-10-15T06:02:05;12.90;99.90
39079;DHT22;24829;49.208;12.080;2022-10-15T06:04:30;12.90;99.90
39079;DHT22;24829;49.208;12.080;2022-10-15T06:06:57;12.90;99.90
39079;DHT22;24829;49.208;12.080;2022-10-15T06:09:22;12.90;99.90
39079;DHT22;24829;49.208;12.080;2022-10-15T06:11:48;12.90;99.90
39079;DHT22;24829;49.208;12.080;2022-10-15T06:14:14;12.90;99.90
39079;DHT22;24829;49.208;12.080;2022-10-15T06:16:39;12.90;99.90
39079;DHT22;24829;49.208;12.080;2022-10-15T06:19:05;12.90;99.90
39079;DHT22;24829;49.208;12.080;2022-10-15T06:21:30;12.90;99.90
39079;DHT22;24829;49.208;12.080;2022-10-15T06:23:56;12.90;99.90
39079;DHT22;24829;49.208;12.080;2022-10-15T06:26:22;12.90;99.90
39079;DHT22;24829;49.208;12.080;2022-10-15T06:28:47;12.90;99.90
39079;DHT22;24829;49.208;12.080;2022-10-15T06:31:13;12.80;99.90
39079;DHT22;24829;49.208;12.080;2022-10-15T06:33:38;12.80;99.90
39079;DHT22;24829;49.208;12.080;2022-10-15T06:36:06;12.70;99.90
39079;DHT22;24829;49.208;12.080;2022-10-15T06:38:33;12.70;99.90
39079;DHT22;24829;49.208;12.080;2022-10-15T06:41:03;12.70;99.90
39079;DHT22;24829;49.208;12.080;2022-10-15T06:43:29;12.70;99.90
39079;DHT22;24829;49.208;12.080;2022-10-15T06:45:54;12.70;99.90
39079;DHT22;24829;49.208;12.080;2022-10-15T06:48:22;12.80;99.90
39079;DHT22;24829;49.208;12.080;2022-10-15T06:50:48;12.80;99.90
39079;DHT22;24829;49.208;12.080;2022-10-15T06:53:13;12.90;99.90
39079;DHT22;24829;49.208;12.080;2022-10-15T06:55:40;12.90;99.90
39079;DHT22;24829;49.208;12.080;2022-10-15T06:58:06;13.00;99.90
39079;DHT22;24829;49.208;12.080;2022-10-15T07:00:32;13.00;99.90
39079;DHT22;24829;49.208;12.080;2022-10-15T07:03:05;13.00;99.90
39079;DHT22;24829;49.208;12.080;2022-10-15T07:05:32;13.10;99.90
39079;DHT22;24829;49.208;12.080;2022-10-15T07:07:58;13.10;99.90
39079;DHT22;24829;49.208;12.080;2022-10-15T07:10:25;13.10;99.90
39079;DHT22;24829;49.208;12.080;2022-10-15T07:12:51;13.10;99.90
39079;DHT22;24829;49.208;12.080;2022-10-15T07:15:17;13.10;99.90
39079;DHT22;24829;49.208;12.080;2022-10-15T07:17:50;13.20;99.90
39079;DHT22;24829;49.208;12.080;2022-10-15T07:20:17;13.20;99.90
39079;DHT22;24829;49.208;12.080;2022-10-15T07:22:43;13.20;99.90
39079;DHT22;24829;49.208;12.080;2022-10-15T07:25:08;13.20;99.90
39079;DHT22;24829;49.208;12.080;2022-10-15T07:27:35;13.30;99.90
39079;DHT22;24829;49.208;12.080;2022-10-15T07:30:01;13.30;99.90
39079;DHT22;24829;49.208;12.080;2022-10-15T07:32:26;13.40;99.90
39079;DHT22;24829;49.208;12.080;2022-10-15T07:34:52;13.40;99.90
39079;DHT22;24829;49.208;12.080;2022-10-15T07:37:17;13.40;99.90
39079;DHT22;24829;49.208;12.080;2022-10-15T07:39:43;13.40;99.90
39079;DHT22;24829;49.208;12.080;2022-10-15T07:42:09;13.40;99.90
39079;DHT22;24829;49.208;12.080;2022-10-15T07:44:34;13.50;99.90
39079;DHT22;24829;49.208;12.080;2022-10-15T07:47:09;13.50;99.90
39079;DHT22;24829;49.208;12.080;2022-10-15T07:49:34;13.50;99.90
39079;DHT22;24829;49.208;12.080;2022-10-15T07:52:00;13.50;99.90
39079;DHT22;24829;49.208;12.080;2022-10-15T07:54:26;13.50;99.90
39079;DHT22;24829;49.208;12.080;2022-10-15T07:56:51;13.60;99.90
39079;DHT22;24829;49.208;12.080;2022-10-15T07:59:17;13.60;99.90
39079;DHT22;24829;49.208;12.080;2022-10-15T08:01:42;13.60;99.90
39079;DHT22;24829;49.208;12.080;2022-10-15T08:04:08;13.60;99.90
39079;DHT22;24829;49.208;12.080;2022-10-15T08:06:33;13.60;99.90
39079;DHT22;24829;49.208;12.080;2022-10-15T08:08:59;13.60;99.90
39079;DHT22;24829;49.208;12.080;2022-10-15T08:11:25;13.60;99.90
39079;DHT22;24829;49.208;12.080;2022-10-15T08:13:52;13.60;99.90
39079;DHT22;24829;49.208;12.080;2022-10-15T08:16:17;13.60;99.90
39079;DHT22;24829;49.208;12.080;2022-10-15T08:18:44;13.60;99.90
39079;DHT22;24829;49.208;12.080;2022-10-15T08:21:10;13.60;99.90
39079;DHT22;24829;49.208;12.080;2022-10-15T08:23:36;13.50;99.90
39079;DHT22;24829;49.208;12.080;2022-10-15T08:26:01;13.50;99.90
39079;DHT22;24829;49.208;12.080;2022-10-15T08:28:27;13.60;99.90
39079;DHT22;24829;49.208;12.080;2022-10-15T08:30:53;13.60;99.90
39079;DHT22;24829;49.208;12.080;2022-10-15T08:33:20;13.60;99.90
39079;DHT22;24829;49.208;12.080;2022-10-15T08:35:45;13.70;99.90
39079;DHT22;24829;49.208;12.080;2022-10-15T08:38:11;13.80;99.90
39079;DHT22;24829;49.208;12.080;2022-10-15T08:40:37;13.90;99.90
39079;DHT22;24829;49.208;12.080;2022-10-15T08:43:02;13.90;99.90
39079;DHT22;24829;49.208;12.080;2022-10-15T08:45:30;14.00;99.90
39079;DHT22;24829;49.208;12.080;2022-10-15T08:48:04;14.00;99.90
39079;DHT22;24829;49.208;12.080;2022-10-15T08:51:40;14.00;99.90
39079;DHT22;24829;49.208;12.080;2022-10-15T08:53:44;14.10;99.90
39079;DHT22;24829;49.208;12.080;2022-10-15T08:56:18;14.20;99.90
39079;DHT22;24829;49.208;12.080;2022-10-15T08:58:52;14.30;99.90
39079;DHT22;24829;49.208;12.080;2022-10-15T09:01:34;14.40;99.90
39079;DHT22;24829;49.208;12.080;2022-10-15T09:04:13;14.40;99.90
39079;DHT22;24829;49.208;12.080;2022-10-15T09:06:41;14.40;99.90
39079;DHT22;24829;49.208;12.080;2022-10-15T09:14:17;14.60;99.90
39079;DHT22;24829;49.208;12.080;2022-10-15T09:16:47;14.60;99.90
39079;DHT22;24829;49.208;12.080;2022-10-15T09:19:19;14.60;99.90
39079;DHT22;24829;49.208;12.080;2022-10-15T09:21:50;14.70;99.90
39079;DHT22;24829;49.208;12.080;2022-10-15T09:24:27;14.80;99.90
39079;DHT22;24829;49.208;12.080;2022-10-15T09:27:08;14.80;99.90
39079;DHT22;24829;49.208;12.080;2022-10-15T09:34:51;15.00;99.90
39079;DHT22;24829;49.208;12.080;2022-10-15T09:37:32;15.00;99.90
39079;DHT22;24829;49.208;12.080;2022-10-15T09:40:23;15.00;99.90
39079;DHT22;24829;49.208;12.080;2022-10-15T09:42:54;15.10;99.90
39079;DHT22;24829;49.208;12.080;2022-10-15T09:45:21;15.10;99.90
39079;DHT22;24829;49.208;12.080;2022-10-15T09:47:49;15.10;99.90
39079;DHT22;24829;49.208;12.080;2022-10-15T09:50:15;15.20;99.90
39079;DHT22;24829;49.208;12.080;2022-10-15T09:55:47;15.20;99.90
39079;DHT22;24829;49.208;12.080;2022-10-15T09:59:01;15.30;99.90
39079;DHT22;24829;49.208;12.080;2022-10-15T10:01:29;15.30;99.90
39079;DHT22;24829;49.208;12.080;2022-10-15T10:04:16;15.40;99.90
39079;DHT22;24829;49.208;12.080;2022-10-15T10:06:47;15.50;99.90
39079;DHT22;24829;49.208;12.080;2022-10-15T10:09:20;15.50;99.90
39079;DHT22;24829;49.208;12.080;2022-10-15T10:11:58;15.60;99.90
39079;DHT22;24829;49.208;12.080;2022-10-15T10:14:35;15.60;99.90
39079;DHT22;24829;49.208;12.080;2022-10-15T10:17:26;15.60;99.90
39079;DHT22;24829;49.208;12.080;2022-10-15T10:22:47;15.60;99.90
39079;DHT22;24829;49.208;12.080;2022-10-15T10:27:52;15.60;99.90
39079;DHT22;24829;49.208;12.080;2022-10-15T10:30:19;15.60;99.90
39079;DHT22;24829;49.208;12.080;2022-10-15T10:32:44;15.60;99.90
39079;DHT22;24829;49.208;12.080;2022-10-15T10:35:23;15.70;99.90
39079;DHT22;24829;49.208;12.080;2022-10-15T10:37:49;15.70;99.90
39079;DHT22;24829;49.208;12.080;2022-10-15T10:40:34;15.70;99.90
39079;DHT22;24829;49.208;12.080;2022-10-15T10:43:23;15.80;99.90
39079;DHT22;24829;49.208;12.080;2022-10-15T10:46:01;15.80;99.90
39079;DHT22;24829;49.208;12.080;2022-10-15T10:48:50;15.80;99.90
39079;DHT22;24829;49.208;12.080;2022-10-15T10:54:05;16.00;99.90
39079;DHT22;24829;49.208;12.080;2022-10-15T10:56:42;16.10;99.90
39079;DHT22;24829;49.208;12.080;2022-10-15T10:59:18;16.20;99.90
39079;DHT22;24829;49.208;12.080;2022-10-15T11:01:46;16.30;99.90
39079;DHT22;24829;49.208;12.080;2022-10-15T11:04:28;16.20;99.90
39079;DHT22;24829;49.208;12.080;2022-10-15T11:15:09;16.40;99.90
39079;DHT22;24829;49.208;12.080;2022-10-15T11:17:51;16.40;99.90
39079;DHT22;24829;49.208;12.080;2022-10-15T11:28:55;16.80;99.90
39079;DHT22;24829;49.208;12.080;2022-10-15T11:34:42;17.00;99.90
39079;DHT22;24829;49.208;12.080;2022-10-15T11:48:17;17.60;99.90
39079;DHT22;24829;49.208;12.080;2022-10-15T11:50:50;17.70;99.90
39079;DHT22;24829;49.208;12.080;2022-10-15T11:58:38;17.90;99.90
39079;DHT22;24829;49.208;12.080;2022-10-15T12:01:17;18.00;99.90
39079;DHT22;24829;49.208;12.080;2022-10-15T12:03:54;17.90;99.90
39079;DHT22;24829;49.208;12.080;2022-10-15T12:06:23;18.00;99.90
39079;DHT22;24829;49.208;12.080;2022-10-15T12:08:52;18.10;99.90
39079;DHT22;24829;49.208;12.080;2022-10-15T12:14:10;18.10;99.90
39079;DHT22;24829;49.208;12.080;2022-10-15T12:19:20;18.00;99.90
39079;DHT22;24829;49.208;12.080;2022-10-15T12:29:43;18.00;99.90
39079;DHT22;24829;49.208;12.080;2022-10-15T12:32:29;18.00;99.90
39079;DHT22;24829;49.208;12.080;2022-10-15T12:34:55;18.00;99.90
39079;DHT22;24829;49.208;12.080;2022-10-15T12:37:24;18.00;99.90
39079;DHT22;24829;49.208;12.080;2022-10-15T12:39:56;18.00;99.90
39079;DHT22;24829;49.208;12.080;2022-10-15T12:42:30;18.00;99.90
39079;DHT22;24829;49.208;12.080;2022-10-15T12:44:58;18.00;99.90
39079;DHT22;24829;49.208;12.080;2022-10-15T12:47:47;17.90;99.90
39079;DHT22;24829;49.208;12.080;2022-10-15T12:50:27;17.90;99.90
39079;DHT22;24829;49.208;12.080;2022-10-15T12:55:31;18.00;99.90
39079;DHT22;24829;49.208;12.080;2022-10-15T12:58:30;18.00;99.90
39079;DHT22;24829;49.208;12.080;2022-10-15T13:00:51;18.00;99.90
39079;DHT22;24829;49.208;12.080;2022-10-15T13:03:35;18.00;99.90
39079;DHT22;24829;49.208;12.080;2022-10-15T13:06:32;18.00;99.90
39079;DHT22;24829;49.208;12.080;2022-10-15T13:11:43;17.90;99.90
39079;DHT22;24829;49.208;12.080;2022-10-15T13:14:30;17.80;99.90
39079;DHT22;24829;49.208;12.080;2022-10-15T13:16:57;17.80;99.90
39079;DHT22;24829;49.208;12.080;2022-10-15T13:19:37;17.80;99.90
39079;DHT22;24829;49.208;12.080;2022-10-15T13:22:05;17.80;99.90
39079;DHT22;24829;49.208;12.080;2022-10-15T13:24:40;17.80;99.90
39079;DHT22;24829;49.208;12.080;2022-10-15T13:27:14;17.80;99.90
39079;DHT22;24829;49.208;12.080;2022-10-15T13:29:56;17.80;99.90
39079;DHT22;24829;49.208;12.080;2022-10-15T13:32:22;17.80;99.90
39079;DHT22;24829;49.208;12.080;2022-10-15T13:34:49;17.70;99.90
39079;DHT22;24829;49.208;12.080;2022-10-15T13:37:19;17.70;99.90
39079;DHT22;24829;49.208;12.080;2022-10-15T13:39:49;17.70;99.90
39079;DHT22;24829;49.208;12.080;2022-10-15T13:42:18;17.60;99.90
39079;DHT22;24829;49.208;12.080;2022-10-15T13:47:51;17.50;99.90
39079;DHT22;24829;49.208;12.080;2022-10-15T13:50:30;17.50;99.90
39079;DHT22;24829;49.208;12.080;2022-10-15T13:55:59;17.40;99.90
39079;DHT22;24829;49.208;12.080;2022-10-15T13:58:34;17.30;99.90
39079;DHT22;24829;49.208;12.080;2022-10-15T14:01:17;17.30;99.90
39079;DHT22;24829;49.208;12.080;2022-10-15T14:03:49;17.30;99.90
39079;DHT22;24829;49.208;12.080;2022-10-15T14:06:19;17.30;99.90
39079;DHT22;24829;49.208;12.080;2022-10-15T14:08:48;17.30;99.90
39079;DHT22;24829;49.208;12.080;2022-10-15T14:11:15;17.30;99.90
39079;DHT22;24829;49.208;12.080;2022-10-15T14:13:45;17.20;99.90
39079;DHT22;24829;49.208;12.080;2022-10-15T14:21:30;17.20;99.90
39079;DHT22;24829;49.208;12.080;2022-10-15T14:24:22;17.20;99.90
39079;DHT22;24829;49.208;12.080;2022-10-15T14:26:49;17.20;99.90
39079;DHT22;24829;49.208;12.080;2022-10-15T14:29:32;17.20;99.90
39079;DHT22;24829;49.208;12.080;2022-10-15T14:31:59;17.20;99.90
39079;DHT22;24829;49.208;12.080;2022-10-15T14:37:01;17.10;99.90
39079;DHT22;24829;49.208;12.080;2022-10-15T14:42:02;17.10;99.90
39079;DHT22;24829;49.208;12.080;2022-10-15T14:47:16;17.20;99.90
39079;DHT22;24829;49.208;12.080;2022-10-15T14:49:43;17.20;99.90
39079;DHT22;24829;49.208;12.080;2022-10-15T14:52:15;17.20;99.90
39079;DHT22;24829;49.208;12.080;2022-10-15T14:54:46;17.30;99.90
39079;DHT22;24829;49.208;12.080;2022-10-15T14:57:23;17.30;99.90
39079;DHT22;24829;49.208;12.080;2022-10-15T14:59:55;17.30;99.90
39079;DHT22;24829;49.208;12.080;2022-10-15T15:02:23;17.30;99.90
39079;DHT22;24829;49.208;12.080;2022-10-15T15:07:36;17.30;99.90
39079;DHT22;24829;49.208;12.080;2022-10-15T15:10:03;17.20;99.90
39079;DHT22;24829;49.208;12.080;2022-10-15T15:12:29;17.20;99.90
39079;DHT22;24829;49.208;12.080;2022-10-15T15:14:56;17.20;99.90
39079;DHT22;24829;49.208;12.080;2022-10-15T15:17:25;17.20;99.90
39079;DHT22;24829;49.208;12.080;2022-10-15T15:19:52;17.20;99.90
39079;DHT22;24829;49.208;12.080;2022-10-15T15:22:32;17.20;99.90
39079;DHT22;24829;49.208;12.080;2022-10-15T15:25:00;17.10;99.90
39079;DHT22;24829;49.208;12.080;2022-10-15T15:27:28;17.20;99.90
39079;DHT22;24829;49.208;12.080;2022-10-15T15:29:55;17.10;99.90
39079;DHT22;24829;49.208;12.080;2022-10-15T15:32:22;17.00;99.90
39079;DHT22;24829;49.208;12.080;2022-10-15T15:34:49;16.90;99.90
39079;DHT22;24829;49.208;12.080;2022-10-15T15:37:18;16.80;99.90
39079;DHT22;24829;49.208;12.080;2022-10-15T15:39:44;16.70;99.90
39079;DHT22;24829;49.208;12.080;2022-10-15T15:42:12;16.60;99.90
39079;DHT22;24829;49.208;12.080;2022-10-15T15:44:37;16.60;99.90
39079;DHT22;24829;49.208;12.080;2022-10-15T15:47:03;16.60;99.90
39079;DHT22;24829;49.208;12.080;2022-10-15T15:49:29;16.60;99.90
39079;DHT22;24829;49.208;12.080;2022-10-15T15:51:54;16.60;99.90
39079;DHT22;24829;49.208;12.080;2022-10-15T15:54:20;16.50;99.90
39079;DHT22;24829;49.208;12.080;2022-10-15T15:56:45;16.50;99.90
39079;DHT22;24829;49.208;12.080;2022-10-15T15:59:11;16.40;99.90
39079;DHT22;24829;49.208;12.080;2022-10-15T16:01:37;16.40;99.90
39079;DHT22;24829;49.208;12.080;2022-10-15T16:04:02;16.40;99.90
39079;DHT22;24829;49.208;12.080;2022-10-15T16:06:28;16.40;99.90
39079;DHT22;24829;49.208;12.080;2022-10-15T16:08:53;16.40;99.90
39079;DHT22;24829;49.208;12.080;2022-10-15T16:11:19;16.30;99.90
39079;DHT22;24829;49.208;12.080;2022-10-15T16:13:44;16.30;99.90
39079;DHT22;24829;49.208;12.080;2022-10-15T16:16:10;16.30;99.90
39079;DHT22;24829;49.208;12.080;2022-10-15T16:18:35;16.30;99.90
39079;DHT22;24829;49.208;12.080;2022-10-15T16:21:02;16.20;99.90
39079;DHT22;24829;49.208;12.080;2022-10-15T16:23:28;16.20;99.90
39079;DHT22;24829;49.208;12.080;2022-10-15T16:25:53;16.10;99.90
39079;DHT22;24829;49.208;12.080;2022-10-15T16:28:22;16.10;99.90
39079;DHT22;24829;49.208;12.080;2022-10-15T16:30:47;16.00;99.90
39079;DHT22;24829;49.208;12.080;2022-10-15T16:33:13;15.90;99.90
39079;DHT22;24829;49.208;12.080;2022-10-15T16:35:39;15.90;99.90
39079;DHT22;24829;49.208;12.080;2022-10-15T16:38:05;15.80;99.90
39079;DHT22;24829;49.208;12.080;2022-10-15T16:40:31;15.80;99.90
39079;DHT22;24829;49.208;12.080;2022-10-15T16:42:57;15.80;99.90
39079;DHT22;24829;49.208;12.080;2022-10-15T16:45:22;15.80;99.90
39079;DHT22;24829;49.208;12.080;2022-10-15T16:47:48;15.70;99.90
39079;DHT22;24829;49.208;12.080;2022-10-15T16:50:14;15.70;99.90
39079;DHT22;24829;49.208;12.080;2022-10-15T16:52:39;15.70;99.90
39079;DHT22;24829;49.208;12.080;2022-10-15T16:55:05;15.70;99.90
39079;DHT22;24829;49.208;12.080;2022-10-15T16:57:31;15.70;99.90
39079;DHT22;24829;49.208;12.080;2022-10-15T16:59:56;15.70;99.90
39079;DHT22;24829;49.208;12.080;2022-10-15T17:02:22;15.70;99.90
39079;DHT22;24829;49.208;12.080;2022-10-15T17:04:47;15.70;99.90
39079;DHT22;24829;49.208;12.080;2022-10-15T17:07:13;15.70;99.90
39079;DHT22;24829;49.208;12.080;2022-10-15T17:09:38;15.70;99.90
39079;DHT22;24829;49.208;12.080;2022-10-15T17:12:04;15.70;99.90
39079;DHT22;24829;49.208;12.080;2022-10-15T17:14:30;15.70;99.90
39079;DHT22;24829;49.208;12.080;2022-10-15T17:16:55;15.70;99.90
39079;DHT22;24829;49.208;12.080;2022-10-15T17:19:23;15.70;99.90
39079;DHT22;24829;49.208;12.080;2022-10-15T17:21:49;15.70;99.90
39079;DHT22;24829;49.208;12.080;2022-10-15T17:24:16;15.70;99.90
39079;DHT22;24829;49.208;12.080;2022-10-15T17:26:44;15.70;99.90
39079;DHT22;24829;49.208;12.080;2022-10-15T17:29:12;15.70;99.90
39079;DHT22;24829;49.208;12.080;2022-10-15T17:31:40;15.70;99.90